Time;durP1;ratioP1;P1;durP2;ratioP2;P2;SDS_P1;SDS_P2;PMS_P1;PMS_P2;Temp;Humidity;BMP_temperature;BMP_pressure;BME280_temperature;BME280_humidity;BME280_pressure;Samples;Min_cycle;Max_cycle;Signal;HPM_P1;HPM_P2
2020/12/04 00:02:06;;;;;;;13.27;7.70;;;2.60;49.60;;;;;;5065901;28;36614;-84
2020/12/04 00:04:34;;;;;;;16.50;9.83;;;2.60;49.10;;;;;;5079033;28;39603;-86
2020/12/04 00:07:04;;;;;;;14.80;8.53;;;2.70;48.80;;;;;;5079349;28;39000;-85
2020/12/04 00:09:31;;;;;;;14.73;9.13;;;2.70;48.30;;;;;;5067280;28;36860;-84
2020/12/04 00:12:00;;;;;;;13.67;9.37;;;2.80;48.00;;;;;;5068589;28;36107;-84
2020/12/04 00:14:27;;;;;;;14.33;9.43;;;2.80;48.00;;;;;;5081414;28;40202;-84
2020/12/04 00:16:54;;;;;;;13.37;9.00;;;2.80;48.10;;;;;;5076894;28;37802;-85
2020/12/04 00:19:24;;;;;;;13.40;8.57;;;2.90;48.10;;;;;;5073704;28;38952;-82
2020/12/04 00:21:52;;;;;;;15.10;8.67;;;2.90;47.50;;;;;;5069984;28;37344;-83
2020/12/04 00:24:19;;;;;;;14.70;9.40;;;2.90;47.10;;;;;;5079433;28;38717;-84
2020/12/04 00:26:46;;;;;;;14.93;9.40;;;2.90;47.20;;;;;;5069590;28;39706;-83
2020/12/04 00:29:15;;;;;;;13.47;8.63;;;3.00;47.10;;;;;;5075622;28;38989;-83
2020/12/04 00:31:45;;;;;;;13.37;8.97;;;3.00;47.10;;;;;;5078613;28;37615;-83
2020/12/04 00:34:12;;;;;;;14.43;9.20;;;3.00;47.00;;;;;;5072423;28;40230;-84
2020/12/04 00:36:40;;;;;;;14.47;8.37;;;3.00;46.90;;;;;;5076517;28;38933;-83
2020/12/04 00:39:07;;;;;;;18.17;9.10;;;3.00;47.10;;;;;;5075290;28;38106;-83
2020/12/04 00:41:34;;;;;;;15.50;9.80;;;2.90;47.30;;;;;;5066882;28;37100;-83
2020/12/04 00:44:01;;;;;;;13.57;8.03;;;2.90;47.50;;;;;;5077320;28;39388;-83
2020/12/04 00:46:28;;;;;;;15.10;9.10;;;2.90;47.60;;;;;;5081821;28;38877;-83
2020/12/04 00:48:55;;;;;;;14.20;8.60;;;2.90;48.20;;;;;;5077452;28;38054;-84
2020/12/04 00:51:22;;;;;;;11.03;7.70;;;2.90;47.60;;;;;;5077348;28;38019;-83
2020/12/04 00:53:54;;;;;;;11.53;7.73;;;2.90;47.70;;;;;;5077972;28;38739;-84
2020/12/04 00:56:29;;;;;;;12.27;8.53;;;2.90;47.80;;;;;;5083338;28;40028;-83
2020/12/04 00:58:56;;;;;;;14.40;9.20;;;2.90;47.80;;;;;;5070255;28;36957;-84
2020/12/04 01:01:24;;;;;;;14.30;9.43;;;2.90;47.80;;;;;;5064687;28;36008;-84
2020/12/04 01:03:53;;;;;;;14.33;9.20;;;2.80;48.00;;;;;;5070775;28;39713;-84
2020/12/04 01:06:21;;;;;;;17.20;9.40;;;2.80;47.80;;;;;;5074571;28;38967;-83
2020/12/04 01:08:50;;;;;;;12.70;8.50;;;2.80;47.70;;;;;;5081293;28;37141;-83
2020/12/04 01:11:20;;;;;;;13.70;8.70;;;2.80;47.40;;;;;;5072245;28;37422;-83
2020/12/04 01:13:47;;;;;;;14.60;9.13;;;2.80;47.70;;;;;;5067018;28;38877;-83
2020/12/04 01:16:14;;;;;;;14.27;8.07;;;2.80;47.40;;;;;;5068424;28;37717;-83
2020/12/04 01:18:42;;;;;;;29.63;9.20;;;2.80;47.50;;;;;;5079670;28;37613;-84
2020/12/04 01:21:12;;;;;;;15.30;9.37;;;2.90;47.40;;;;;;5085003;28;37527;-84
2020/12/04 01:23:39;;;;;;;16.40;10.23;;;2.90;47.30;;;;;;5069875;28;38914;-83
2020/12/04 01:26:06;;;;;;;14.07;8.80;;;2.90;47.50;;;;;;5060150;28;39324;-84
2020/12/04 01:28:34;;;;;;;14.60;9.37;;;2.90;47.60;;;;;;5084143;28;38399;-83
2020/12/04 01:31:08;;;;;;;13.13;8.73;;;2.90;47.60;;;;;;5073194;28;38157;-83
2020/12/04 01:33:35;;;;;;;16.67;10.87;;;2.90;47.60;;;;;;5081131;28;40146;-83
2020/12/04 01:36:02;;;;;;;14.60;10.00;;;2.90;47.60;;;;;;5082731;28;39068;-83
2020/12/04 01:38:29;;;;;;;14.00;9.20;;;2.80;48.40;;;;;;5071089;28;38215;-83
2020/12/04 01:41:00;;;;;;;16.73;10.20;;;2.80;47.90;;;;;;5073733;28;36926;-83
2020/12/04 01:43:29;;;;;;;13.97;8.57;;;2.90;48.10;;;;;;5080760;28;40115;-83
2020/12/04 01:45:58;;;;;;;13.07;8.97;;;2.80;47.80;;;;;;5076930;28;39155;-82
2020/12/04 01:48:26;;;;;;;14.30;9.27;;;2.80;47.90;;;;;;5083577;28;38188;-82
2020/12/04 01:50:53;;;;;;;16.07;10.13;;;2.90;48.00;;;;;;5083301;28;37154;-83
2020/12/04 01:53:21;;;;;;;12.70;8.50;;;2.90;48.00;;;;;;5068744;28;40624;-82
2020/12/04 01:55:50;;;;;;;14.77;9.70;;;2.90;48.10;;;;;;5070926;28;39186;-83
2020/12/04 01:58:17;;;;;;;13.40;9.00;;;2.90;48.00;;;;;;5073520;28;36869;-83
2020/12/04 02:00:45;;;;;;;14.10;8.80;;;2.90;48.10;;;;;;5067721;28;36820;-82
2020/12/04 02:03:15;;;;;;;13.37;8.23;;;2.90;48.20;;;;;;5076732;28;39689;-82
2020/12/04 02:05:48;;;;;;;14.80;9.90;;;2.90;48.40;;;;;;5070638;28;38089;-82
2020/12/04 02:08:24;;;;;;;11.47;8.03;;;2.90;48.40;;;;;;5087421;28;38483;-82
2020/12/04 02:11:00;;;;;;;13.77;8.20;;;2.80;48.30;;;;;;5078563;28;37543;-83
2020/12/04 02:13:28;;;;;;;15.70;10.20;;;2.90;48.40;;;;;;5075104;28;39702;-83
2020/12/04 02:15:56;;;;;;;15.40;9.23;;;3.00;48.00;;;;;;5074100;28;38415;-83
2020/12/04 02:18:24;;;;;;;13.90;10.13;;;2.90;48.50;;;;;;5070467;28;37661;-83
2020/12/04 02:20:59;;;;;;;16.83;9.23;;;2.90;47.60;;;;;;5070728;28;36525;-83
2020/12/04 02:23:29;;;;;;;14.30;8.80;;;3.00;47.90;;;;;;5073977;28;38651;-82
2020/12/04 02:25:57;;;;;;;13.47;8.50;;;3.00;48.30;;;;;;5058848;28;37849;-82
2020/12/04 02:28:33;;;;;;;14.30;9.27;;;2.90;48.40;;;;;;5081689;28;20573;-83
2020/12/04 02:31:00;;;;;;;12.30;8.30;;;2.90;48.40;;;;;;5080624;28;36115;-84
2020/12/04 02:33:27;;;;;;;16.50;9.70;;;2.90;48.30;;;;;;5077791;28;38195;-84
2020/12/04 02:35:58;;;;;;;13.23;9.17;;;3.00;48.10;;;;;;5066226;28;36578;-84
2020/12/04 02:38:26;;;;;;;14.40;9.43;;;3.00;48.20;;;;;;5062211;28;36871;-83
2020/12/04 02:40:53;;;;;;;14.30;9.60;;;2.90;48.40;;;;;;5069473;28;35951;-84
2020/12/04 02:43:21;;;;;;;14.70;9.10;;;2.90;48.40;;;;;;5080377;28;39933;-83
2020/12/04 02:45:48;;;;;;;16.60;9.93;;;2.90;48.40;;;;;;5073335;28;38083;-83
2020/12/04 02:48:16;;;;;;;15.70;10.27;;;2.90;48.40;;;;;;5079281;28;37799;-83
2020/12/04 02:50:46;;;;;;;11.93;8.40;;;2.90;48.40;;;;;;5074483;28;36871;-83
2020/12/04 02:53:17;;;;;;;14.80;9.53;;;2.90;48.40;;;;;;5072779;28;38626;-83
2020/12/04 02:55:46;;;;;;;13.47;9.50;;;2.90;48.20;;;;;;5081048;28;39642;-82
2020/12/04 02:58:13;;;;;;;12.03;8.60;;;2.90;48.10;;;;;;5074106;28;37059;-82
2020/12/04 03:00:40;;;;;;;16.00;9.40;;;2.90;48.00;;;;;;5079217;28;37575;-82
2020/12/04 03:03:09;;;;;;;14.27;9.20;;;2.90;48.00;;;;;;5069254;28;38896;-83
2020/12/04 03:05:36;;;;;;;14.30;9.23;;;2.90;48.20;;;;;;5071099;28;39148;-83
2020/12/04 03:08:03;;;;;;;14.30;9.40;;;3.00;48.00;;;;;;5079971;28;38134;-82
2020/12/04 03:10:31;;;;;;;13.43;9.13;;;3.00;48.70;;;;;;5069103;28;36369;-82
2020/12/04 03:13:01;;;;;;;16.10;10.00;;;3.00;48.00;;;;;;5069853;28;40232;-83
2020/12/04 03:15:28;;;;;;;14.50;9.20;;;3.00;47.90;;;;;;5067178;28;40251;-83
2020/12/04 03:17:55;;;;;;;14.83;9.67;;;3.10;47.50;;;;;;5073178;28;39006;-83
2020/12/04 03:20:24;;;;;;;15.80;9.00;;;3.10;47.60;;;;;;5069222;28;36943;-84
2020/12/04 03:22:51;;;;;;;11.87;8.60;;;3.00;47.60;;;;;;5070923;28;38410;-84
2020/12/04 03:25:18;;;;;;;16.87;10.00;;;3.00;47.70;;;;;;5071743;28;38337;-84
2020/12/04 03:27:46;;;;;;;13.00;8.60;;;3.00;48.40;;;;;;5070602;28;39232;-83
2020/12/04 03:30:13;;;;;;;14.73;9.20;;;3.10;48.10;;;;;;5070051;28;38238;-83
2020/12/04 03:32:40;;;;;;;13.87;9.73;;;3.10;48.20;;;;;;5066688;28;39522;-83
2020/12/04 03:35:07;;;;;;;13.83;9.20;;;3.10;48.60;;;;;;5070405;28;39497;-83
2020/12/04 03:37:34;;;;;;;13.50;9.77;;;3.10;48.60;;;;;;5072554;28;38877;-84
2020/12/04 03:40:01;;;;;;;14.50;9.47;;;3.10;48.70;;;;;;5050984;28;35765;-83
2020/12/04 03:42:28;;;;;;;17.07;11.47;;;3.10;48.90;;;;;;5072331;28;39719;-83
2020/12/04 03:44:56;;;;;;;15.90;10.27;;;3.10;49.00;;;;;;5069301;28;38912;-84
2020/12/04 03:47:23;;;;;;;16.80;9.97;;;3.10;49.00;;;;;;5072349;28;37596;-84
2020/12/04 03:49:50;;;;;;;13.37;9.83;;;3.10;48.80;;;;;;5067557;28;37527;-84
2020/12/04 03:52:20;;;;;;;16.17;9.77;;;3.10;48.80;;;;;;5070522;28;40547;-83
2020/12/04 03:54:47;;;;;;;16.03;9.97;;;3.00;48.60;;;;;;5069072;28;37917;-83
2020/12/04 03:57:14;;;;;;;12.80;9.00;;;3.00;48.50;;;;;;5065578;28;37228;-84
2020/12/04 03:59:43;;;;;;;14.50;8.77;;;3.10;48.10;;;;;;5071263;28;36244;-85
2020/12/04 04:02:11;;;;;;;14.10;8.97;;;3.10;48.20;;;;;;5067982;28;38882;-83
2020/12/04 04:04:38;;;;;;;14.90;8.40;;;3.10;48.00;;;;;;5073328;28;39341;-84
2020/12/04 04:07:05;;;;;;;14.50;9.40;;;3.10;48.10;;;;;;5071649;28;37204;-84
2020/12/04 04:09:32;;;;;;;14.80;9.87;;;3.20;48.20;;;;;;5072953;28;37651;-83
2020/12/04 04:11:59;;;;;;;14.73;9.47;;;3.30;48.40;;;;;;5070839;28;39646;-83
2020/12/04 04:14:26;;;;;;;13.13;9.70;;;3.30;48.40;;;;;;5072549;28;38054;-82
2020/12/04 04:16:53;;;;;;;17.03;10.27;;;3.20;48.60;;;;;;5068636;28;37763;-83
2020/12/04 04:19:23;;;;;;;21.13;11.20;;;3.20;48.60;;;;;;5060846;28;37767;-83
2020/12/04 04:21:50;;;;;;;15.80;10.60;;;3.20;49.30;;;;;;5074196;28;39942;-83
2020/12/04 04:24:20;;;;;;;16.53;10.57;;;3.20;48.70;;;;;;5073055;28;38464;-83
2020/12/04 04:26:50;;;;;;;17.07;10.07;;;3.20;48.90;;;;;;5074288;28;38122;-84
2020/12/04 04:29:17;;;;;;;12.93;9.20;;;3.20;48.70;;;;;;5073948;28;36148;-84
2020/12/04 04:31:44;;;;;;;15.77;10.30;;;3.20;48.80;;;;;;5070626;28;38294;-83
2020/12/04 04:34:14;;;;;;;13.10;9.60;;;3.20;48.70;;;;;;5072994;28;39178;-83
2020/12/04 04:36:42;;;;;;;16.33;10.10;;;3.20;48.70;;;;;;5074178;28;38819;-83
2020/12/04 04:39:11;;;;;;;15.23;9.63;;;3.20;48.80;;;;;;5075726;28;36771;-83
2020/12/04 04:41:41;;;;;;;14.00;9.40;;;3.20;48.70;;;;;;5072275;28;38455;-83
2020/12/04 04:44:11;;;;;;;16.60;9.83;;;3.20;48.80;;;;;;5074312;28;40125;-83
2020/12/04 04:46:43;;;;;;;15.17;9.73;;;3.20;48.70;;;;;;5075072;28;38240;-83
2020/12/04 04:49:26;;;;;;;14.93;9.90;;;3.20;48.70;;;;;;5071485;28;37548;-83
2020/12/04 04:51:58;;;;;;;13.70;9.40;;;3.20;48.60;;;;;;5072615;28;40351;-83
2020/12/04 04:54:25;;;;;;;17.00;9.70;;;3.20;48.70;;;;;;5072968;28;39955;-83
2020/12/04 04:56:53;;;;;;;14.90;9.60;;;3.20;48.70;;;;;;5074426;28;38415;-83
2020/12/04 04:59:23;;;;;;;23.17;11.67;;;3.20;48.80;;;;;;5074482;28;36907;-82
2020/12/04 05:01:51;;;;;;;15.17;10.23;;;3.20;48.70;;;;;;5067729;28;40856;-84
2020/12/04 05:04:18;;;;;;;14.73;10.43;;;3.20;48.70;;;;;;5071333;28;39067;-84
2020/12/04 05:06:45;;;;;;;14.43;9.90;;;3.20;48.70;;;;;;5071849;28;36815;-84
2020/12/04 05:09:25;;;;;;;16.47;10.10;;;3.20;48.70;;;;;;5067055;28;36343;-83
2020/12/04 05:11:57;;;;;;;16.23;10.53;;;3.20;48.80;;;;;;5072431;28;39599;-84
2020/12/04 05:14:25;;;;;;;14.93;10.30;;;3.20;48.90;;;;;;5071689;28;39136;-84
2020/12/04 05:16:54;;;;;;;16.50;10.87;;;3.20;48.80;;;;;;5073292;28;37012;-84
2020/12/04 05:19:31;;;;;;;14.37;9.73;;;3.20;48.90;;;;;;5070933;28;36212;-84
2020/12/04 05:22:12;;;;;;;13.93;8.97;;;3.20;48.90;;;;;;5054107;28;38642;-84
2020/12/04 05:24:41;;;;;;;13.90;9.37;;;3.20;49.00;;;;;;5069839;28;39085;-84
2020/12/04 05:27:25;;;;;;;15.37;10.20;;;3.20;48.90;;;;;;5072731;28;37672;-84
2020/12/04 05:29:56;;;;;;;14.90;10.07;;;3.20;49.00;;;;;;5072262;28;37460;-84
2020/12/04 05:32:24;;;;;;;13.67;9.50;;;3.20;48.90;;;;;;5082294;28;42568;-84
2020/12/04 05:35:06;;;;;;;16.13;10.00;;;3.20;48.60;;;;;;5070636;28;39690;-84
2020/12/04 05:37:33;;;;;;;14.83;10.27;;;3.30;47.50;;;;;;5069382;28;37814;-84
2020/12/04 05:40:01;;;;;;;12.30;8.70;;;3.20;47.60;;;;;;5072433;28;37339;-83
2020/12/04 05:42:33;;;;;;;13.60;9.50;;;3.20;47.30;;;;;;5071890;28;40207;-86
2020/12/04 05:45:03;;;;;;;13.83;9.40;;;3.20;47.40;;;;;;5072234;28;38491;-85
2020/12/04 05:47:38;;;;;;;18.90;9.63;;;3.30;47.10;;;;;;5068427;28;37268;-85
2020/12/04 05:50:08;;;;;;;12.67;9.47;;;3.20;47.30;;;;;;5084651;28;37103;-86
2020/12/04 05:52:38;;;;;;;15.73;10.20;;;3.30;47.60;;;;;;5081305;28;38896;-85
2020/12/04 05:55:08;;;;;;;16.67;10.17;;;3.30;48.20;;;;;;5083560;28;39679;-84
2020/12/04 05:57:44;;;;;;;13.63;9.03;;;3.20;48.40;;;;;;5068937;28;37339;-84
2020/12/04 06:00:14;;;;;;;20.10;9.50;;;3.20;49.30;;;;;;5071340;28;36289;-85
2020/12/04 06:02:42;;;;;;;14.20;9.30;;;3.20;48.80;;;;;;5068510;28;40524;-85
2020/12/04 06:05:10;;;;;;;16.27;10.50;;;3.20;48.70;;;;;;5071494;28;38550;-84
2020/12/04 06:07:41;;;;;;;16.10;10.47;;;3.20;48.70;;;;;;5070255;28;37621;-86
2020/12/04 06:10:10;;;;;;;14.27;9.50;;;3.10;48.60;;;;;;5071093;28;37223;-86
2020/12/04 06:12:40;;;;;;;19.67;10.60;;;3.10;48.60;;;;;;5065952;28;40061;-84
2020/12/04 06:15:27;;;;;;;17.87;10.80;;;3.10;48.40;;;;;;5072308;28;38832;-84
2020/12/04 06:18:04;;;;;;;16.17;9.83;;;3.10;48.60;;;;;;5074170;28;38142;-83
2020/12/04 06:20:41;;;;;;;14.57;9.93;;;3.10;48.60;;;;;;5070600;28;36317;-84
2020/12/04 06:23:14;;;;;;;16.70;10.10;;;3.10;48.10;;;;;;5072146;28;38559;-84
2020/12/04 06:26:03;;;;;;;16.30;10.30;;;3.20;48.30;;;;;;5073372;28;37748;-84
2020/12/04 06:28:33;;;;;;;18.23;10.40;;;3.20;48.30;;;;;;5072127;28;37725;-84
2020/12/04 06:31:09;;;;;;;12.97;9.23;;;3.20;48.50;;;;;;5060832;28;37788;-85
2020/12/04 06:33:45;;;;;;;15.23;9.73;;;3.20;48.20;;;;;;5068164;28;39505;-84
2020/12/04 06:36:33;;;;;;;14.80;10.73;;;3.20;48.80;;;;;;5072367;28;38920;-84
2020/12/04 06:39:04;;;;;;;14.87;9.50;;;3.10;47.80;;;;;;5071832;28;36929;-85
2020/12/04 06:41:34;;;;;;;15.57;10.60;;;3.10;47.90;;;;;;5071749;28;36389;-84
2020/12/04 06:44:04;;;;;;;16.47;9.57;;;3.10;47.60;;;;;;5070186;28;38698;-84
2020/12/04 06:46:36;;;;;;;12.80;8.63;;;3.20;47.60;;;;;;5071731;28;38765;-84
2020/12/04 06:49:10;;;;;;;15.80;10.60;;;3.20;47.30;;;;;;5071207;28;37047;-84
2020/12/04 06:51:38;;;;;;;14.67;9.67;;;3.10;47.30;;;;;;5071725;28;37356;-84
2020/12/04 06:54:05;;;;;;;15.70;10.60;;;3.00;47.70;;;;;;5071179;28;39900;-83
2020/12/04 06:56:34;;;;;;;13.53;9.10;;;2.90;48.00;;;;;;5068369;28;38853;-84
2020/12/04 06:59:01;;;;;;;16.70;10.50;;;3.00;48.40;;;;;;5061783;28;38114;-85
2020/12/04 07:01:33;;;;;;;16.60;10.67;;;3.00;48.40;;;;;;5061372;28;36205;-84
2020/12/04 07:04:01;;;;;;;19.00;10.13;;;3.00;48.50;;;;;;5047733;28;39450;-84
2020/12/04 07:06:30;;;;;;;18.10;11.10;;;3.00;48.50;;;;;;5069989;28;39034;-84
2020/12/04 07:09:02;;;;;;;18.07;11.23;;;3.00;48.50;;;;;;5061126;28;37187;-84
2020/12/04 07:11:30;;;;;;;19.57;11.00;;;3.00;49.00;;;;;;5078794;28;36181;-84
2020/12/04 07:13:59;;;;;;;16.70;10.90;;;3.00;49.00;;;;;;5059410;28;39562;-84
2020/12/04 07:16:27;;;;;;;15.60;11.17;;;3.00;48.80;;;;;;5070040;28;38140;-84
2020/12/04 07:18:54;;;;;;;16.20;11.10;;;3.00;49.10;;;;;;5068964;28;37901;-84
2020/12/04 07:21:26;;;;;;;15.40;10.23;;;3.10;49.10;;;;;;5071996;28;37758;-84
2020/12/04 07:23:55;;;;;;;14.10;10.33;;;3.00;49.10;;;;;;5070559;28;38618;-85
2020/12/04 07:26:28;;;;;;;15.97;10.07;;;3.00;48.90;;;;;;5069795;28;38302;-84
2020/12/04 07:28:55;;;;;;;13.77;9.00;;;3.10;48.80;;;;;;5070980;28;36790;-84
2020/12/04 07:31:23;;;;;;;23.10;10.07;;;3.10;48.70;;;;;;5068416;28;37883;-85
2020/12/04 07:33:56;;;;;;;16.20;10.57;;;3.20;48.70;;;;;;5070906;28;39290;-84
2020/12/04 07:36:23;;;;;;;15.50;10.57;;;3.20;48.70;;;;;;5072792;28;36961;-85
2020/12/04 07:38:55;;;;;;;14.70;9.77;;;3.20;48.70;;;;;;5067942;28;38476;-84
2020/12/04 07:41:36;;;;;;;22.20;10.67;;;3.20;48.70;;;;;;5070834;28;36017;-85
2020/12/04 07:44:07;;;;;;;16.90;10.80;;;3.20;49.10;;;;;;5068219;28;40319;-84
2020/12/04 07:46:36;;;;;;;14.37;9.70;;;3.20;49.20;;;;;;5053850;28;37794;-84
2020/12/04 07:49:07;;;;;;;15.83;10.07;;;3.30;49.10;;;;;;5073905;28;36999;-86
2020/12/04 07:51:51;;;;;;;25.63;11.10;;;3.40;48.80;;;;;;5075818;28;36752;-84
2020/12/04 07:54:35;;;;;;;15.67;10.13;;;3.50;48.90;;;;;;5075232;28;38229;-85
2020/12/04 07:57:12;;;;;;;15.50;10.20;;;3.40;48.40;;;;;;5072697;28;39077;-86
2020/12/04 07:59:40;;;;;;;15.43;9.10;;;3.50;48.40;;;;;;5066049;28;37190;-85
2020/12/04 08:02:09;;;;;;;14.00;9.20;;;3.50;48.70;;;;;;5073852;28;38135;-84
2020/12/04 08:04:42;;;;;;;29.17;11.40;;;3.60;48.20;;;;;;5068442;28;40312;-83
2020/12/04 08:07:11;;;;;;;17.30;9.73;;;3.60;48.70;;;;;;5061687;28;37762;-83
2020/12/04 08:09:40;;;;;;;14.67;9.10;;;3.60;48.50;;;;;;5064812;28;38089;-82
2020/12/04 08:12:17;;;;;;;17.13;10.43;;;3.70;48.50;;;;;;5069493;28;36038;-84
2020/12/04 08:14:52;;;;;;;18.13;9.67;;;3.90;48.50;;;;;;5064936;28;38506;-84
2020/12/04 08:17:22;;;;;;;15.37;9.20;;;4.10;48.00;;;;;;5064535;28;39017;-85
2020/12/04 08:19:49;;;;;;;48.47;12.20;;;4.20;47.80;;;;;;5066492;28;38362;-85
2020/12/04 08:22:25;;;;;;;17.20;9.00;;;4.40;47.80;;;;;;5071970;28;37645;-85
2020/12/04 08:25:03;;;;;;;38.40;11.80;;;4.60;47.40;;;;;;5072141;28;40866;-85
2020/12/04 08:27:31;;;;;;;17.80;11.07;;;4.70;47.40;;;;;;5071458;28;39605;-85
2020/12/04 08:30:06;;;;;;;21.30;10.40;;;4.90;47.10;;;;;;5078736;28;36821;-84
2020/12/04 08:32:37;;;;;;;19.80;11.47;;;5.00;46.60;;;;;;5074019;28;36614;-85
2020/12/04 08:35:09;;;;;;;23.03;11.17;;;5.20;46.50;;;;;;5068871;28;39837;-85
2020/12/04 08:37:36;;;;;;;18.10;11.37;;;5.20;46.00;;;;;;5065269;28;39359;-85
2020/12/04 08:40:04;;;;;;;40.90;13.33;;;5.20;45.80;;;;;;5066936;28;38803;-85
2020/12/04 08:42:34;;;;;;;16.80;9.27;;;5.30;45.70;;;;;;5070974;28;37735;-85
2020/12/04 08:45:08;;;;;;;14.20;8.40;;;5.30;45.30;;;;;;5061246;28;40644;-85
2020/12/04 08:47:39;;;;;;;12.60;8.20;;;5.40;44.40;;;;;;5071975;28;39327;-85
2020/12/04 08:50:16;;;;;;;11.03;8.50;;;5.30;44.70;;;;;;5077415;28;37913;-85
2020/12/04 08:52:46;;;;;;;13.57;8.30;;;5.30;44.10;;;;;;5072930;28;36102;-85
2020/12/04 08:55:15;;;;;;;11.97;8.50;;;5.30;43.90;;;;;;5066630;28;38484;-83
2020/12/04 08:57:44;;;;;;;13.77;8.60;;;5.20;44.20;;;;;;5064544;28;37965;-83
2020/12/04 09:00:16;;;;;;;14.33;9.07;;;5.20;44.50;;;;;;5073119;28;37762;-85
2020/12/04 09:02:44;;;;;;;12.37;7.60;;;5.20;44.90;;;;;;5069047;28;35840;-84
2020/12/04 09:05:13;;;;;;;17.70;9.73;;;5.30;45.00;;;;;;5069733;28;40594;-84
2020/12/04 09:07:44;;;;;;;16.70;9.63;;;5.50;45.20;;;;;;5065884;28;38786;-84
2020/12/04 09:10:13;;;;;;;13.27;9.37;;;5.70;45.40;;;;;;5062269;28;38059;-84
2020/12/04 09:12:43;;;;;;;12.73;8.20;;;5.90;45.00;;;;;;5064234;28;36915;-84
2020/12/04 09:15:11;;;;;;;10.17;8.50;;;6.10;43.80;;;;;;5068749;28;38524;-84
2020/12/04 09:17:43;;;;;;;13.93;8.90;;;6.40;43.60;;;;;;5066403;28;37864;-84
2020/12/04 09:20:12;;;;;;;12.53;7.70;;;6.60;42.90;;;;;;5070605;28;36987;-84
2020/12/04 09:22:40;;;;;;;11.97;8.60;;;6.60;42.60;;;;;;5068336;28;36327;-84
2020/12/04 09:25:11;;;;;;;20.90;9.37;;;6.60;42.70;;;;;;5069684;28;39650;-84
2020/12/04 09:27:39;;;;;;;17.43;8.83;;;6.70;42.90;;;;;;5069182;28;38653;-84
2020/12/04 09:30:08;;;;;;;16.87;8.13;;;6.80;42.40;;;;;;5067096;28;38917;-84
2020/12/04 09:32:39;;;;;;;14.97;8.07;;;7.10;42.10;;;;;;5067547;28;37146;-84
2020/12/04 09:35:07;;;;;;;19.23;7.97;;;7.10;41.00;;;;;;5070215;28;38160;-84
2020/12/04 09:37:38;;;;;;;19.67;9.10;;;7.30;41.10;;;;;;5069997;28;39188;-84
2020/12/04 09:40:08;;;;;;;15.73;8.40;;;7.40;40.40;;;;;;5063861;28;38417;-84
2020/12/04 09:42:36;;;;;;;15.60;8.30;;;7.40;39.90;;;;;;5064014;28;37432;-84
2020/12/04 09:45:04;;;;;;;13.17;8.00;;;7.40;39.90;;;;;;5061262;28;39822;-83
2020/12/04 09:47:33;;;;;;;15.20;8.83;;;7.40;40.10;;;;;;5073676;28;39209;-84
2020/12/04 09:50:03;;;;;;;17.03;8.00;;;7.50;40.30;;;;;;5074363;28;38326;-84
2020/12/04 09:52:31;;;;;;;16.07;9.03;;;7.50;40.30;;;;;;5067432;28;36057;-83
2020/12/04 09:54:59;;;;;;;19.23;9.43;;;7.50;40.40;;;;;;5064636;28;38983;-84
2020/12/04 09:57:26;;;;;;;16.20;9.40;;;7.50;41.00;;;;;;5071101;28;39377;-85
2020/12/04 09:59:53;;;;;;;11.40;8.10;;;7.50;40.10;;;;;;5066866;28;37665;-84
2020/12/04 10:02:22;;;;;;;26.20;9.67;;;7.40;40.10;;;;;;5058474;28;36803;-84
2020/12/04 10:04:50;;;;;;;14.20;8.40;;;7.40;40.30;;;;;;5071448;28;39893;-84
2020/12/04 10:07:17;;;;;;;15.20;8.07;;;7.40;40.30;;;;;;5062993;28;39066;-84
2020/12/04 10:09:45;;;;;;;14.33;7.97;;;7.20;40.30;;;;;;5063693;28;38182;-83
2020/12/04 10:12:12;;;;;;;15.03;9.60;;;7.20;40.80;;;;;;5059717;28;37014;-83
2020/12/04 10:14:41;;;;;;;10.33;7.67;;;7.10;40.90;;;;;;5061968;28;40204;-84
2020/12/04 10:17:09;;;;;;;13.17;8.93;;;7.10;40.70;;;;;;5065587;28;38203;-84
2020/12/04 10:19:36;;;;;;;11.40;8.30;;;6.90;40.70;;;;;;5066227;28;36939;-82
2020/12/04 10:22:04;;;;;;;14.40;8.17;;;6.80;40.90;;;;;;5074701;28;38016;-85
2020/12/04 10:24:31;;;;;;;13.83;7.97;;;6.70;41.00;;;;;;5074975;28;39704;-85
2020/12/04 10:27:00;;;;;;;13.20;8.73;;;6.60;41.10;;;;;;5072157;28;37737;-83
2020/12/04 10:29:27;;;;;;;21.13;9.50;;;6.60;41.50;;;;;;5072615;28;39080;-83
2020/12/04 10:31:54;;;;;;;17.30;8.33;;;6.60;41.90;;;;;;5070722;28;37828;-83
2020/12/04 10:34:21;;;;;;;17.10;10.20;;;6.60;42.00;;;;;;5059884;28;38405;-83
2020/12/04 10:36:50;;;;;;;20.77;9.53;;;6.60;42.40;;;;;;5073654;28;39868;-84
2020/12/04 10:39:18;;;;;;;19.23;9.23;;;6.60;42.40;;;;;;5057918;28;36624;-84
2020/12/04 10:41:45;;;;;;;17.73;9.60;;;6.50;42.40;;;;;;5072382;28;37276;-85
2020/12/04 10:44:17;;;;;;;15.87;9.80;;;6.50;42.70;;;;;;5063938;28;38377;-85
2020/12/04 10:46:44;;;;;;;17.60;9.73;;;6.30;42.30;;;;;;5066926;28;40138;-84
2020/12/04 10:49:11;;;;;;;14.33;10.30;;;6.20;41.80;;;;;;5081611;28;37109;-84
2020/12/04 10:51:38;;;;;;;14.03;9.93;;;6.10;41.50;;;;;;5069691;28;36841;-83
2020/12/04 10:54:06;;;;;;;17.83;9.00;;;5.90;42.20;;;;;;5072539;28;40030;-83
2020/12/04 10:56:33;;;;;;;15.47;9.17;;;5.80;42.10;;;;;;5067608;28;38784;-83
2020/12/04 10:59:00;;;;;;;16.83;10.37;;;5.80;42.20;;;;;;5068704;28;37536;-83
2020/12/04 11:01:34;;;;;;;21.83;10.33;;;5.60;42.60;;;;;;5066034;28;37236;-84
2020/12/04 11:06:48;;;;;;;17.80;11.00;;;5.50;43.00;;;;;;5057906;28;38212;-85
2020/12/04 11:09:15;;;;;;;25.70;14.23;;;5.60;43.40;;;;;;5053396;28;37424;-85
2020/12/04 11:11:43;;;;;;;20.43;11.73;;;5.60;43.70;;;;;;5062305;28;38044;-84
2020/12/04 11:14:10;;;;;;;14.60;9.63;;;5.70;43.60;;;;;;5062436;28;39676;-83
2020/12/04 11:16:41;;;;;;;12.70;9.50;;;5.80;42.90;;;;;;5057341;28;38813;-84
2020/12/04 11:19:09;;;;;;;27.47;10.47;;;5.90;42.20;;;;;;5067594;28;37733;-85
2020/12/04 11:21:36;;;;;;;16.30;10.50;;;6.10;42.40;;;;;;5063200;28;35921;-85
2020/12/04 11:24:06;;;;;;;16.70;10.30;;;6.20;42.50;;;;;;5066590;28;38468;-84
2020/12/04 11:26:33;;;;;;;15.50;10.20;;;6.30;42.50;;;;;;5067872;28;38695;-84
2020/12/04 11:29:01;;;;;;;21.37;11.77;;;6.30;41.50;;;;;;5074336;28;38362;-84
2020/12/04 11:31:28;;;;;;;28.63;13.30;;;6.30;41.30;;;;;;5070644;28;38190;-84
2020/12/04 11:33:56;;;;;;;16.90;10.67;;;6.30;42.40;;;;;;5073697;28;39111;-85
2020/12/04 11:36:25;;;;;;;18.70;10.50;;;6.20;41.00;;;;;;5094429;28;38341;-85
2020/12/04 11:38:53;;;;;;;18.73;10.33;;;6.10;41.30;;;;;;5087090;28;39544;-85
2020/12/04 11:41:20;;;;;;;15.63;9.67;;;6.10;41.50;;;;;;5083007;28;37692;-85
2020/12/04 11:43:49;;;;;;;14.50;8.87;;;6.00;41.40;;;;;;5065700;28;38857;-85
2020/12/04 11:46:16;;;;;;;20.43;11.03;;;5.90;41.60;;;;;;5060705;28;39299;-84
2020/12/04 11:48:43;;;;;;;29.90;12.23;;;5.90;41.80;;;;;;5076565;28;37212;-83
2020/12/04 11:51:11;;;;;;;17.13;10.10;;;5.90;42.20;;;;;;5061045;28;36286;-85
2020/12/04 11:53:38;;;;;;;13.23;10.00;;;5.90;42.20;;;;;;5075445;28;37168;-84
2020/12/04 11:56:08;;;;;;;19.10;10.40;;;5.90;42.20;;;;;;5060482;28;39486;-85
2020/12/04 11:58:35;;;;;;;29.00;13.07;;;5.90;42.20;;;;;;5066525;28;38728;-84
2020/12/04 12:01:03;;;;;;;30.57;17.23;;;5.80;41.70;;;;;;5063355;28;37844;-84
2020/12/04 12:03:30;;;;;;;23.47;13.90;;;5.70;41.70;;;;;;5087516;28;39865;-85
2020/12/04 12:05:57;;;;;;;20.07;12.10;;;5.60;41.90;;;;;;5085100;28;39862;-84
2020/12/04 12:08:25;;;;;;;18.10;11.73;;;5.50;41.90;;;;;;5080815;28;39297;-85
2020/12/04 12:10:52;;;;;;;19.50;11.10;;;5.50;42.30;;;;;;5075032;28;36533;-84
2020/12/04 12:13:19;;;;;;;18.07;10.43;;;5.50;42.70;;;;;;5070568;28;39138;-84
2020/12/04 12:15:46;;;;;;;19.67;10.33;;;5.60;42.90;;;;;;5070899;28;38469;-85
2020/12/04 12:18:13;;;;;;;17.13;11.40;;;5.70;42.80;;;;;;5074046;28;38739;-85
2020/12/04 12:20:42;;;;;;;15.03;10.00;;;5.80;42.60;;;;;;5073664;28;37928;-85
2020/12/04 12:23:09;;;;;;;18.43;10.47;;;5.80;42.30;;;;;;5071787;28;39733;-84
2020/12/04 12:25:37;;;;;;;18.07;11.10;;;5.80;42.20;;;;;;5063618;28;39559;-84
2020/12/04 12:28:04;;;;;;;18.20;11.40;;;5.80;42.10;;;;;;5070400;28;37830;-83
2020/12/04 12:30:32;;;;;;;21.40;12.60;;;5.80;41.80;;;;;;5055363;28;37051;-85
2020/12/04 12:32:59;;;;;;;20.80;11.50;;;5.90;42.20;;;;;;5069647;28;39433;-86
2020/12/04 12:35:26;;;;;;;22.87;12.30;;;5.90;42.50;;;;;;5070581;28;38627;-85
2020/12/04 12:37:54;;;;;;;18.80;10.77;;;5.90;42.20;;;;;;5074139;28;37466;-85
2020/12/04 12:40:24;;;;;;;20.57;11.23;;;5.90;42.00;;;;;;5068476;28;36425;-88
2020/12/04 12:42:54;;;;;;;16.17;11.23;;;5.90;42.20;;;;;;5065662;28;38246;-85
2020/12/04 12:45:24;;;;;;;16.10;9.90;;;5.90;42.10;;;;;;5065344;28;39219;-87
2020/12/04 12:47:53;;;;;;;15.43;11.97;;;5.90;41.90;;;;;;5074963;28;38692;-87
2020/12/04 12:50:20;;;;;;;17.87;11.30;;;5.90;41.60;;;;;;5074990;28;36526;-90
2020/12/04 12:52:48;;;;;;;17.87;10.70;;;5.90;41.50;;;;;;5069973;28;39161;-83
2020/12/04 12:55:15;;;;;;;17.90;11.57;;;5.90;41.50;;;;;;5068942;28;38142;-83
2020/12/04 12:57:42;;;;;;;16.80;10.60;;;5.80;41.40;;;;;;5073596;28;38219;-83